Time;durP1;ratioP1;P1;durP2;ratioP2;P2;SDS_P1;SDS_P2;PMS_P1;PMS_P2;Temp;Humidity;BMP_temperature;BMP_pressure;BME280_temperature;BME280_humidity;BME280_pressure;Samples;Min_cycle;Max_cycle;Signal;HPM_P1;HPM_P2
2024/01/09 00:00:56;;;;;;;7.40;2.00;;;-1.80;75.60;;;;;;5025043;28;20021;-87
2024/01/09 00:03:22;;;;;;;5.17;2.03;;;-2.00;75.90;;;;;;5025320;28;20025;-88
2024/01/09 00:05:48;;;;;;;8.83;3.03;;;-1.90;76.40;;;;;;5025496;28;20060;-87
2024/01/09 00:08:13;;;;;;;7.77;2.43;;;-1.80;76.20;;;;;;5025499;28;20036;-88
2024/01/09 00:10:39;;;;;;;7.10;2.20;;;-2.00;76.20;;;;;;5043533;28;20025;-88
2024/01/09 00:13:05;;;;;;;5.33;2.33;;;-1.90;76.60;;;;;;5024546;28;20094;-86
2024/01/09 00:15:31;;;;;;;5.87;2.27;;;-1.90;77.90;;;;;;5043560;28;20030;-88
2024/01/09 00:17:57;;;;;;;8.07;2.03;;;-1.90;77.30;;;;;;5025235;28;20028;-90
2024/01/09 00:20:23;;;;;;;5.07;1.80;;;-1.90;77.40;;;;;;5025581;28;20021;-89
2024/01/09 00:22:51;;;;;;;6.23;2.73;;;-2.00;77.30;;;;;;5025456;28;20372;-89
2024/01/09 00:25:18;;;;;;;7.97;2.67;;;-1.90;77.50;;;;;;5043216;28;20048;-90
2024/01/09 00:27:44;;;;;;;7.37;2.13;;;-2.00;76.40;;;;;;5024974;28;20326;-88
2024/01/09 00:30:11;;;;;;;4.73;1.80;;;-2.00;76.90;;;;;;5025075;28;20287;-87
2024/01/09 00:32:37;;;;;;;7.17;2.30;;;-2.00;76.70;;;;;;5024980;28;20319;-88
2024/01/09 00:35:03;;;;;;;5.13;1.83;;;-2.00;76.80;;;;;;5008485;28;20296;-88
2024/01/09 00:37:29;;;;;;;4.97;1.70;;;-2.10;76.60;;;;;;5025246;28;20308;-89
2024/01/09 00:39:55;;;;;;;5.37;1.93;;;-2.10;76.40;;;;;;5024712;28;20295;-89
2024/01/09 00:42:20;;;;;;;6.17;1.90;;;-2.10;76.70;;;;;;5025376;28;20029;-89
2024/01/09 00:44:46;;;;;;;4.77;2.10;;;-2.10;76.60;;;;;;5026468;28;20057;-88
2024/01/09 00:47:12;;;;;;;6.93;2.43;;;-2.20;76.60;;;;;;5025608;28;20017;-89
2024/01/09 00:49:38;;;;;;;5.60;1.47;;;-2.20;76.20;;;;;;5043733;28;20026;-89
2024/01/09 00:52:04;;;;;;;6.47;2.10;;;-2.20;76.60;;;;;;5025355;28;20014;-88
2024/01/09 00:54:29;;;;;;;4.33;1.60;;;-2.20;76.70;;;;;;5043432;28;20292;-89
2024/01/09 00:56:55;;;;;;;4.30;1.77;;;-2.20;76.70;;;;;;5024813;28;20033;-89
2024/01/09 00:59:21;;;;;;;5.97;2.10;;;-2.20;77.00;;;;;;5025265;28;20029;-88
2024/01/09 01:01:49;;;;;;;6.23;1.87;;;-2.20;76.90;;;;;;5008463;28;20083;-89
2024/01/09 01:04:15;;;;;;;8.50;2.03;;;-2.20;76.90;;;;;;5024667;28;20028;-89
2024/01/09 01:06:41;;;;;;;4.13;1.73;;;-2.30;76.80;;;;;;5024813;28;20288;-89
2024/01/09 01:09:07;;;;;;;5.97;2.03;;;-2.30;76.70;;;;;;5023479;28;20027;-88
2024/01/09 01:11:33;;;;;;;4.03;1.50;;;-2.30;76.70;;;;;;5024061;28;20327;-89
2024/01/09 01:13:59;;;;;;;6.23;1.83;;;-2.30;76.80;;;;;;5007631;28;20304;-88
2024/01/09 01:16:24;;;;;;;4.97;2.00;;;-2.30;76.70;;;;;;5024883;28;20057;-89
2024/01/09 01:18:50;;;;;;;6.47;2.40;;;-2.30;76.90;;;;;;5025508;28;20043;-88
2024/01/09 01:21:16;;;;;;;5.17;2.07;;;-2.30;76.90;;;;;;5027206;28;20025;-88
2024/01/09 01:23:42;;;;;;;4.60;1.23;;;-2.30;77.00;;;;;;5025040;28;20041;-88
2024/01/09 01:26:08;;;;;;;5.37;1.97;;;-2.30;77.00;;;;;;5023636;28;20049;-89
2024/01/09 01:28:34;;;;;;;4.70;1.67;;;-2.30;76.90;;;;;;5024630;28;20294;-89
2024/01/09 01:31:00;;;;;;;4.47;1.90;;;-2.40;77.00;;;;;;5007411;28;20284;-88
2024/01/09 01:33:25;;;;;;;5.67;1.40;;;-2.40;77.10;;;;;;5024205;28;20037;-88
2024/01/09 01:35:51;;;;;;;5.57;1.60;;;-2.40;77.20;;;;;;5024022;28;20018;-88
2024/01/09 01:38:17;;;;;;;4.07;1.70;;;-2.40;77.30;;;;;;5041855;28;20025;-88
2024/01/09 01:40:42;;;;;;;3.87;1.40;;;-2.40;77.40;;;;;;5024116;28;20093;-88
2024/01/09 01:43:08;;;;;;;5.67;2.50;;;-2.40;77.50;;;;;;5023898;28;20056;-88
2024/01/09 01:45:34;;;;;;;5.77;1.70;;;-2.50;77.40;;;;;;5023949;28;20022;-87
2024/01/09 01:48:01;;;;;;;4.00;1.73;;;-2.50;77.50;;;;;;5023744;28;20021;-89
2024/01/09 01:50:30;;;;;;;6.70;1.63;;;-2.50;77.50;;;;;;5024317;28;20022;-89
2024/01/09 01:52:58;;;;;;;4.63;1.87;;;-2.50;77.60;;;;;;5023557;28;20355;-88
2024/01/09 01:55:25;;;;;;;8.00;2.07;;;-2.50;77.90;;;;;;5023555;28;20315;-88
2024/01/09 01:57:53;;;;;;;6.00;1.70;;;-2.50;78.10;;;;;;5024143;28;20319;-90
2024/01/09 02:00:21;;;;;;;6.37;1.97;;;-2.50;78.10;;;;;;5023704;28;20335;-88
2024/01/09 02:02:50;;;;;;;4.43;1.80;;;-2.50;78.10;;;;;;5024114;28;20302;-89
2024/01/09 02:05:23;;;;;;;5.70;1.90;;;-2.50;78.10;;;;;;5023162;28;20280;-89
2024/01/09 02:07:53;;;;;;;6.97;1.90;;;-2.50;78.40;;;;;;5023954;28;20280;-87
2024/01/09 02:10:19;;;;;;;5.97;1.90;;;-2.60;78.30;;;;;;5023665;28;20295;-89
2024/01/09 02:12:45;;;;;;;6.10;1.90;;;-2.60;78.50;;;;;;5023821;28;20287;-89
2024/01/09 02:15:11;;;;;;;6.17;2.30;;;-2.60;79.10;;;;;;5023846;28;20504;-88
2024/01/09 02:17:38;;;;;;;8.07;2.30;;;-2.60;79.00;;;;;;5023571;28;20368;-89
2024/01/09 02:20:07;;;;;;;6.43;2.07;;;-2.60;79.10;;;;;;5026405;28;20392;-89
2024/01/09 02:22:32;;;;;;;5.97;2.00;;;-2.60;79.00;;;;;;5027245;28;20767;-89
2024/01/09 02:24:58;;;;;;;5.80;2.07;;;-2.60;79.60;;;;;;5027685;28;20353;-89
2024/01/09 02:27:36;;;;;;;7.30;2.20;;;-2.60;79.60;;;;;;5027049;28;20038;-90
2024/01/09 02:30:02;;;;;;;6.17;1.50;;;-2.60;80.00;;;;;;5028461;28;20025;-90
2024/01/09 02:32:29;;;;;;;5.80;2.50;;;-2.60;79.80;;;;;;5027930;28;20284;-90
2024/01/09 02:34:55;;;;;;;6.13;2.40;;;-2.60;79.60;;;;;;5027369;28;20072;-89
2024/01/09 02:37:21;;;;;;;9.50;2.13;;;-2.60;79.60;;;;;;5028230;28;20323;-89
2024/01/09 02:39:46;;;;;;;9.07;2.33;;;-2.70;79.40;;;;;;5026404;28;20284;-89
2024/01/09 02:42:13;;;;;;;5.70;1.93;;;-2.70;79.70;;;;;;5027616;28;20470;-89
2024/01/09 02:44:38;;;;;;;6.37;2.27;;;-2.70;80.20;;;;;;5027237;28;20021;-89
2024/01/09 02:47:04;;;;;;;7.03;2.33;;;-2.70;80.10;;;;;;5026850;28;20268;-88
2024/01/09 02:49:30;;;;;;;6.93;1.90;;;-2.70;79.90;;;;;;5026867;28;20120;-90
2024/01/09 02:51:56;;;;;;;7.10;2.57;;;-2.70;80.00;;;;;;5026758;28;20029;-88
2024/01/09 02:54:22;;;;;;;4.90;1.77;;;-2.70;80.10;;;;;;5026942;28;20052;-89
2024/01/09 02:56:48;;;;;;;4.83;1.97;;;-2.80;80.40;;;;;;5044376;28;20287;-88
2024/01/09 02:59:14;;;;;;;5.13;2.13;;;-2.80;80.30;;;;;;5026879;28;20027;-89
2024/01/09 03:01:40;;;;;;;9.70;3.60;;;-2.80;80.40;;;;;;5026708;28;20280;-89
2024/01/09 03:04:05;;;;;;;7.40;2.73;;;-2.80;80.50;;;;;;5026706;28;20033;-87
2024/01/09 03:06:31;;;;;;;8.00;2.83;;;-2.80;80.60;;;;;;5026886;28;20029;-87
2024/01/09 03:08:56;;;;;;;5.60;2.10;;;-2.80;80.80;;;;;;5026451;28;20036;-88
2024/01/09 03:11:22;;;;;;;8.17;2.33;;;-2.90;80.80;;;;;;5026828;28;20045;-88
2024/01/09 03:13:48;;;;;;;5.93;2.07;;;-2.80;80.90;;;;;;5025593;28;20366;-87
2024/01/09 03:16:14;;;;;;;7.53;2.10;;;-2.90;80.80;;;;;;5026600;28;20029;-88
2024/01/09 03:18:44;;;;;;;7.30;2.57;;;-2.90;80.90;;;;;;5025940;28;20032;-86
2024/01/09 03:21:12;;;;;;;6.27;2.03;;;-2.90;81.00;;;;;;5026310;28;20287;-88
2024/01/09 03:23:38;;;;;;;9.13;2.47;;;-2.90;82.10;;;;;;5043996;28;20333;-87
2024/01/09 03:26:04;;;;;;;9.73;3.10;;;-2.80;82.40;;;;;;5026227;28;20284;-88
2024/01/09 03:28:30;;;;;;;6.93;3.37;;;-2.80;82.00;;;;;;5026161;28;20105;-88
2024/01/09 03:30:55;;;;;;;6.60;2.50;;;-2.90;81.50;;;;;;5025012;28;20056;-88
2024/01/09 03:33:21;;;;;;;5.43;2.03;;;-2.80;81.90;;;;;;5026245;28;20351;-90
2024/01/09 03:35:47;;;;;;;5.73;2.10;;;-2.80;82.20;;;;;;5026135;28;20183;-87
2024/01/09 03:38:13;;;;;;;7.10;2.60;;;-2.80;81.70;;;;;;5026219;28;20052;-90
2024/01/09 03:40:38;;;;;;;8.27;2.60;;;-2.90;81.60;;;;;;5026323;28;20045;-89
2024/01/09 03:43:07;;;;;;;7.27;2.97;;;-2.90;81.50;;;;;;5026766;28;20037;-90
2024/01/09 03:45:33;;;;;;;7.50;2.67;;;-2.90;81.60;;;;;;5026215;28;20464;-90
2024/01/09 03:47:59;;;;;;;6.63;2.60;;;-2.90;82.00;;;;;;5025514;28;20280;-89
2024/01/09 03:50:25;;;;;;;6.87;2.67;;;-2.90;81.60;;;;;;5025847;28;20025;-87
2024/01/09 03:52:50;;;;;;;6.83;2.80;;;-2.90;81.60;;;;;;5025469;28;20021;-87
2024/01/09 03:55:16;;;;;;;7.00;2.33;;;-2.90;81.70;;;;;;5025784;28;20029;-86
2024/01/09 03:57:42;;;;;;;5.67;2.47;;;-2.90;81.80;;;;;;5025539;28;20136;-87
2024/01/09 04:00:09;;;;;;;6.40;2.03;;;-2.90;82.30;;;;;;5026001;28;20014;-88
2024/01/09 04:02:34;;;;;;;5.70;2.40;;;-2.90;81.80;;;;;;5026133;28;20279;-88
2024/01/09 04:05:01;;;;;;;7.67;2.50;;;-2.90;81.90;;;;;;5027613;28;20661;-88
2024/01/09 04:07:27;;;;;;;8.00;2.87;;;-3.00;81.70;;;;;;5028519;28;20102;-88
2024/01/09 04:09:53;;;;;;;6.73;2.30;;;-3.00;81.60;;;;;;5043133;28;20272;-88
2024/01/09 04:12:18;;;;;;;7.73;2.30;;;-3.00;81.50;;;;;;5025568;28;20014;-88
2024/01/09 04:14:44;;;;;;;8.63;2.37;;;-3.00;81.40;;;;;;5024903;28;20092;-87
2024/01/09 04:17:10;;;;;;;6.60;1.97;;;-3.00;81.40;;;;;;5025782;28;20045;-89
2024/01/09 04:19:39;;;;;;;7.57;2.37;;;-3.00;81.60;;;;;;5025266;28;20371;-89
2024/01/09 04:22:08;;;;;;;7.63;2.80;;;-2.90;81.60;;;;;;5025350;28;20032;-88
2024/01/09 04:24:34;;;;;;;7.40;2.63;;;-3.00;81.90;;;;;;5025437;28;20294;-89
2024/01/09 04:27:02;;;;;;;8.40;2.77;;;-3.00;82.00;;;;;;5024732;28;20293;-88
2024/01/09 04:29:27;;;;;;;7.63;2.30;;;-3.00;81.60;;;;;;5025318;28;20288;-88
2024/01/09 04:31:53;;;;;;;6.77;2.63;;;-3.00;81.40;;;;;;5024411;28;20295;-87
2024/01/09 04:34:19;;;;;;;6.67;2.67;;;-3.10;81.30;;;;;;5025289;28;20036;-88
2024/01/09 04:36:44;;;;;;;7.47;2.33;;;-3.10;81.30;;;;;;5024513;28;20029;-87
2024/01/09 04:39:10;;;;;;;6.07;2.30;;;-3.10;81.20;;;;;;5024569;28;20488;-87
2024/01/09 04:41:36;;;;;;;7.37;2.30;;;-3.10;81.20;;;;;;5024873;28;20029;-88
2024/01/09 04:44:02;;;;;;;6.50;2.40;;;-3.20;81.20;;;;;;5041373;28;20048;-87
2024/01/09 04:46:27;;;;;;;6.07;1.77;;;-3.10;81.40;;;;;;5024880;28;20104;-87
2024/01/09 04:48:53;;;;;;;9.73;2.63;;;-3.10;81.20;;;;;;5024080;28;20029;-86
2024/01/09 04:51:19;;;;;;;6.00;2.77;;;-3.20;81.10;;;;;;5025093;28;20026;-88
2024/01/09 04:53:44;;;;;;;6.97;2.23;;;-3.20;81.00;;;;;;5024199;28;20033;-87
2024/01/09 04:56:10;;;;;;;5.87;2.53;;;-3.20;81.20;;;;;;5024519;28;20025;-87
2024/01/09 04:58:35;;;;;;;6.83;2.27;;;-3.20;81.30;;;;;;5023938;28;20028;-87
2024/01/09 05:01:01;;;;;;;5.53;2.13;;;-3.20;81.20;;;;;;5024160;28;20207;-87
2024/01/09 05:03:27;;;;;;;6.13;2.33;;;-3.20;81.30;;;;;;5024335;28;20168;-87
2024/01/09 05:05:52;;;;;;;8.00;2.90;;;-3.20;81.30;;;;;;5024042;28;20072;-87
2024/01/09 05:08:18;;;;;;;9.23;2.50;;;-3.20;81.80;;;;;;5024557;28;20067;-87
2024/01/09 05:10:44;;;;;;;5.80;2.30;;;-3.20;81.40;;;;;;5041817;28;20021;-86
2024/01/09 05:13:10;;;;;;;7.20;2.70;;;-3.20;81.30;;;;;;5023797;28;20384;-86
2024/01/09 05:15:36;;;;;;;7.23;2.67;;;-3.20;80.70;;;;;;5023707;28;20044;-87
2024/01/09 05:18:02;;;;;;;6.17;2.40;;;-3.30;81.00;;;;;;5023993;28;20093;-88
2024/01/09 05:20:28;;;;;;;8.10;2.80;;;-3.30;80.90;;;;;;5030375;28;20018;-87
2024/01/09 05:22:54;;;;;;;7.87;2.37;;;-3.20;81.00;;;;;;5021739;28;20028;-85
2024/01/09 05:25:20;;;;;;;6.90;2.40;;;-3.30;80.90;;;;;;5003931;28;20489;-88
2024/01/09 05:27:47;;;;;;;8.20;2.87;;;-3.30;80.60;;;;;;5004171;28;20416;-87
2024/01/09 05:30:13;;;;;;;7.20;3.03;;;-3.30;80.90;;;;;;5004676;28;20041;-87
2024/01/09 05:32:39;;;;;;;7.63;2.70;;;-3.30;80.90;;;;;;5003894;28;20353;-87
2024/01/09 05:35:05;;;;;;;6.73;3.07;;;-3.30;80.60;;;;;;5003960;28;20320;-88
2024/01/09 05:37:31;;;;;;;9.47;3.30;;;-3.30;80.60;;;;;;5004268;28;20454;-87
2024/01/09 05:39:57;;;;;;;8.60;2.70;;;-3.30;80.60;;;;;;5004118;28;20273;-88
2024/01/09 05:42:23;;;;;;;7.70;2.80;;;-3.40;80.70;;;;;;5004092;28;20381;-89
2024/01/09 05:44:48;;;;;;;8.87;2.83;;;-3.30;80.80;;;;;;5020308;28;20037;-87
2024/01/09 05:47:14;;;;;;;7.10;3.13;;;-3.40;80.80;;;;;;5020672;28;20086;-87
2024/01/09 05:49:40;;;;;;;7.63;2.83;;;-3.40;80.70;;;;;;5003928;28;20024;-86
2024/01/09 05:52:05;;;;;;;8.17;3.20;;;-3.40;80.50;;;;;;5004386;28;20034;-87
2024/01/09 05:54:34;;;;;;;9.40;3.30;;;-3.40;80.50;;;;;;5005757;28;20030;-87
2024/01/09 05:57:00;;;;;;;10.70;3.30;;;-3.40;80.60;;;;;;5007774;28;20120;-87
2024/01/09 05:59:25;;;;;;;8.93;3.03;;;-3.50;80.80;;;;;;5008005;28;20343;-87
2024/01/09 06:01:51;;;;;;;8.27;3.40;;;-3.50;81.10;;;;;;5009119;28;20018;-87
2024/01/09 06:04:17;;;;;;;9.37;3.17;;;-3.50;80.70;;;;;;5011953;28;20018;-85
2024/01/09 06:06:42;;;;;;;6.60;2.83;;;-3.50;80.60;;;;;;5006974;28;20056;-86
2024/01/09 06:09:08;;;;;;;8.40;3.03;;;-3.50;80.60;;;;;;5027408;28;20029;-86
2024/01/09 06:11:34;;;;;;;9.40;3.37;;;-3.50;80.80;;;;;;5013958;28;20405;-85
2024/01/09 06:13:59;;;;;;;8.27;2.87;;;-3.60;80.70;;;;;;5026238;28;20389;-84
2024/01/09 06:16:25;;;;;;;12.27;3.53;;;-3.60;80.80;;;;;;5026279;28;20088;-84
2024/01/09 06:18:51;;;;;;;8.43;3.50;;;-3.60;80.90;;;;;;5024168;28;20089;-84
2024/01/09 06:21:16;;;;;;;7.00;2.63;;;-3.60;81.10;;;;;;5026689;28;20010;-84
2024/01/09 06:23:42;;;;;;;9.30;2.97;;;-3.60;80.90;;;;;;5024668;28;20033;-84
2024/01/09 06:26:08;;;;;;;7.47;2.73;;;-3.60;80.80;;;;;;5026703;28;20420;-85
2024/01/09 06:28:34;;;;;;;9.77;3.63;;;-3.50;81.50;;;;;;5025605;28;20393;-84
2024/01/09 06:31:00;;;;;;;8.40;3.30;;;-3.60;80.80;;;;;;5026005;28;20018;-84
2024/01/09 06:33:26;;;;;;;12.67;4.10;;;-3.60;80.80;;;;;;5025596;28;20416;-84
2024/01/09 06:35:52;;;;;;;10.00;3.60;;;-3.50;80.40;;;;;;5025725;28;20041;-85
2024/01/09 06:38:18;;;;;;;9.40;3.60;;;-3.60;80.10;;;;;;5044406;28;20273;-84
2024/01/09 06:40:44;;;;;;;10.90;4.30;;;-3.60;79.80;;;;;;5025630;28;20052;-84
2024/01/09 06:43:10;;;;;;;8.43;3.93;;;-3.60;79.80;;;;;;5026914;28;20017;-85
2024/01/09 06:45:35;;;;;;;9.77;3.70;;;-3.60;79.90;;;;;;5026459;28;20353;-86
2024/01/09 06:48:01;;;;;;;9.60;3.40;;;-3.60;79.70;;;;;;5027345;28;20029;-86
2024/01/09 06:50:27;;;;;;;8.83;4.07;;;-3.60;79.80;;;;;;5027553;28;20044;-84
2024/01/09 06:52:53;;;;;;;9.63;4.20;;;-3.60;80.70;;;;;;5029606;28;20803;-85
2024/01/09 06:55:19;;;;;;;11.03;4.70;;;-3.60;81.10;;;;;;5027422;28;20029;-86
2024/01/09 06:57:45;;;;;;;9.17;3.77;;;-3.60;80.20;;;;;;5026012;28;20060;-87
2024/01/09 07:00:11;;;;;;;9.40;3.33;;;-3.60;80.20;;;;;;5044636;28;20276;-86
2024/01/09 07:02:37;;;;;;;14.23;5.43;;;-3.60;80.20;;;;;;5043768;28;20025;-84
2024/01/09 07:05:04;;;;;;;9.17;3.70;;;-3.60;80.50;;;;;;5026378;28;20314;-85
2024/01/09 07:07:30;;;;;;;10.40;4.07;;;-3.60;80.10;;;;;;5043453;28;20115;-84
2024/01/09 07:09:56;;;;;;;10.50;3.80;;;-3.70;79.80;;;;;;5025966;28;20296;-85
2024/01/09 07:12:22;;;;;;;10.17;4.23;;;-3.70;80.00;;;;;;5026453;28;20280;-85
2024/01/09 07:14:48;;;;;;;10.80;3.97;;;-3.70;80.10;;;;;;5024914;28;20030;-84
2024/01/09 07:17:14;;;;;;;8.77;3.70;;;-3.80;80.20;;;;;;5026191;28;20280;-84
2024/01/09 07:19:39;;;;;;;11.63;3.77;;;-3.80;80.00;;;;;;5025809;28;20032;-85
2024/01/09 07:22:05;;;;;;;7.63;3.37;;;-3.90;80.00;;;;;;5026053;28;20026;-84
2024/01/09 07:24:31;;;;;;;10.00;3.87;;;-3.80;80.10;;;;;;5025342;28;20075;-86
2024/01/09 07:26:56;;;;;;;10.63;4.00;;;-3.80;79.80;;;;;;5025371;28;20038;-84
2024/01/09 07:29:22;;;;;;;11.17;3.90;;;-3.80;79.80;;;;;;5025510;28;20061;-85
2024/01/09 07:31:48;;;;;;;10.97;4.10;;;-3.80;81.10;;;;;;5025016;28;20029;-85
2024/01/09 07:34:14;;;;;;;9.23;3.53;;;-3.80;82.90;;;;;;5025969;28;20033;-85
2024/01/09 07:36:40;;;;;;;10.60;3.60;;;-3.70;82.70;;;;;;5025049;28;20088;-85
2024/01/09 07:39:07;;;;;;;10.97;4.07;;;-3.70;81.90;;;;;;5025872;28;20022;-85
2024/01/09 07:41:32;;;;;;;9.10;3.77;;;-3.80;81.40;;;;;;5025420;28;20276;-84
2024/01/09 07:43:58;;;;;;;9.73;3.97;;;-3.80;80.50;;;;;;5025502;28;20318;-85
2024/01/09 07:46:24;;;;;;;11.23;3.67;;;-3.80;80.40;;;;;;5025571;28;20022;-84
2024/01/09 07:48:49;;;;;;;8.60;3.30;;;-3.80;80.60;;;;;;5024940;28;20022;-85
2024/01/09 07:51:15;;;;;;;8.43;3.83;;;-3.80;80.50;;;;;;5043634;28;20021;-84
2024/01/09 07:53:41;;;;;;;13.23;4.07;;;-3.80;80.30;;;;;;5024586;28;20280;-85
2024/01/09 07:56:15;;;;;;;10.77;3.50;;;-3.80;80.40;;;;;;5025853;28;20097;-85
2024/01/09 07:58:40;;;;;;;10.55;3.45;;;-3.80;80.50;;;;;;5024912;28;20025;-85
2024/01/09 08:01:06;;;;;;;11.40;3.77;;;-3.80;80.20;;;;;;5025361;28;20734;-85
2024/01/09 08:03:32;;;;;;;9.83;3.93;;;-3.80;80.30;;;;;;5025270;28;20021;-86
2024/01/09 08:05:57;;;;;;;10.07;3.17;;;-3.80;80.30;;;;;;5024654;28;20029;-85
2024/01/09 08:08:23;;;;;;;9.97;4.07;;;-3.80;80.10;;;;;;5025641;28;20072;-86
2024/01/09 08:10:48;;;;;;;10.03;3.73;;;-3.80;80.00;;;;;;5024765;28;20028;-85
2024/01/09 08:13:14;;;;;;;8.37;3.10;;;-3.80;80.00;;;;;;5025039;28;20026;-85
2024/01/09 08:15:40;;;;;;;8.37;3.33;;;-3.70;79.90;;;;;;5042521;28;20041;-85
2024/01/09 08:18:06;;;;;;;9.60;3.60;;;-3.70;79.40;;;;;;5025121;28;20021;-86
2024/01/09 08:20:31;;;;;;;9.80;4.13;;;-3.70;79.20;;;;;;5024795;28;20489;-86
2024/01/09 08:22:58;;;;;;;9.57;4.00;;;-3.70;79.20;;;;;;5024455;28;20164;-85
2024/01/09 08:25:23;;;;;;;9.20;3.37;;;-3.60;79.10;;;;;;5008874;28;20033;-86
2024/01/09 08:27:49;;;;;;;9.53;3.80;;;-3.60;79.10;;;;;;5041975;28;20306;-85
2024/01/09 08:30:15;;;;;;;9.40;4.37;;;-3.60;78.90;;;;;;5025032;28;20021;-85
2024/01/09 08:32:41;;;;;;;9.90;3.67;;;-3.50;79.00;;;;;;5024152;28;20018;-86
2024/01/09 08:35:07;;;;;;;8.50;3.70;;;-3.50;78.70;;;;;;5024678;28;20044;-86
2024/01/09 08:37:33;;;;;;;8.93;3.10;;;-3.50;78.90;;;;;;5024530;28;20034;-86
2024/01/09 08:39:58;;;;;;;10.90;3.73;;;-3.50;78.70;;;;;;5024517;28;20280;-86
2024/01/09 08:42:24;;;;;;;8.73;3.80;;;-3.50;77.90;;;;;;5024599;28;20017;-86
2024/01/09 08:44:50;;;;;;;9.37;3.47;;;-3.40;77.90;;;;;;5024106;28;20049;-85
2024/01/09 08:47:16;;;;;;;9.93;3.40;;;-3.40;77.80;;;;;;5024692;28;20014;-86
2024/01/09 08:49:43;;;;;;;11.80;3.40;;;-3.40;78.20;;;;;;5023798;28;20026;-86
2024/01/09 08:52:09;;;;;;;9.20;3.40;;;-3.40;78.10;;;;;;5024566;28;20311;-85
2024/01/09 08:54:35;;;;;;;8.77;3.77;;;-3.30;77.90;;;;;;5041898;28;20787;-86
2024/01/09 08:57:00;;;;;;;9.03;3.33;;;-3.30;77.00;;;;;;5024309;28;20025;-86
2024/01/09 08:59:26;;;;;;;14.40;3.57;;;-3.20;77.00;;;;;;5041964;28;20085;-86
2024/01/09 09:01:52;;;;;;;7.60;2.83;;;-3.20;76.80;;;;;;5023966;28;20032;-85
2024/01/09 09:04:17;;;;;;;10.30;3.23;;;-3.20;77.20;;;;;;5024766;28;20028;-86
2024/01/09 09:06:44;;;;;;;9.50;3.37;;;-3.10;77.20;;;;;;5023607;28;20120;-86
2024/01/09 09:09:10;;;;;;;8.33;2.80;;;-3.10;76.80;;;;;;5024969;28;20017;-85
2024/01/09 09:11:36;;;;;;;9.20;3.13;;;-3.00;76.50;;;;;;5023735;28;20272;-84
2024/01/09 09:14:02;;;;;;;7.73;2.97;;;-3.00;76.40;;;;;;5024450;28;20357;-85
2024/01/09 09:16:29;;;;;;;7.77;3.43;;;-3.00;76.00;;;;;;5024051;28;20025;-85
2024/01/09 09:18:55;;;;;;;6.47;2.93;;;-2.90;75.70;;;;;;5023503;28;20101;-85
2024/01/09 09:21:21;;;;;;;10.50;3.87;;;-2.90;75.70;;;;;;5024593;28;20327;-85
2024/01/09 09:23:47;;;;;;;7.53;2.80;;;-2.80;75.90;;;;;;5023948;28;20778;-85
2024/01/09 09:26:13;;;;;;;6.40;2.33;;;-2.80;76.00;;;;;;5024309;28;20573;-85
2024/01/09 09:28:40;;;;;;;8.23;3.13;;;-2.80;74.80;;;;;;5023135;28;20292;-86
2024/01/09 09:31:06;;;;;;;8.47;3.57;;;-2.70;74.10;;;;;;5024323;28;20017;-85
2024/01/09 09:33:33;;;;;;;10.73;3.40;;;-2.70;73.90;;;;;;5024146;28;20331;-85
2024/01/09 09:36:04;;;;;;;7.90;2.77;;;-2.60;73.90;;;;;;5024617;28;20041;-85
2024/01/09 09:38:30;;;;;;;9.23;3.30;;;-2.40;74.20;;;;;;5026322;28;20363;-85
2024/01/09 09:40:57;;;;;;;10.60;3.43;;;-2.30;73.70;;;;;;5028564;28;20287;-85
2024/01/09 09:43:25;;;;;;;7.73;2.93;;;-2.10;73.60;;;;;;5026613;28;20026;-84
2024/01/09 09:45:55;;;;;;;7.27;3.13;;;-1.80;74.10;;;;;;5023707;28;20285;-86
2024/01/09 09:48:23;;;;;;;9.70;3.60;;;-1.40;73.90;;;;;;5041460;28;20280;-86
2024/01/09 09:50:53;;;;;;;7.47;3.00;;;-1.00;74.70;;;;;;5023820;28;20362;-86
2024/01/09 09:53:24;;;;;;;7.43;2.80;;;-0.50;75.50;;;;;;5023189;28;20026;-86
2024/01/09 09:55:52;;;;;;;8.03;3.03;;;0.10;75.90;;;;;;5024233;28;20034;-86
2024/01/09 09:58:18;;;;;;;6.77;2.33;;;0.90;75.70;;;;;;5023093;28;20097;-86
2024/01/09 10:00:44;;;;;;;7.93;2.73;;;1.50;76.70;;;;;;5023930;28;20021;-86
2024/01/09 10:03:11;;;;;;;8.70;2.67;;;2.30;76.90;;;;;;5023305;28;20024;-85
2024/01/09 10:05:40;;;;;;;9.67;2.93;;;3.00;74.50;;;;;;5023576;28;20149;-86
2024/01/09 10:08:10;;;;;;;6.87;2.40;;;3.60;75.90;;;;;;5023397;28;20018;-86
2024/01/09 10:10:36;;;;;;;4.50;1.73;;;4.30;77.70;;;;;;5022758;28;20041;-86
2024/01/09 10:13:03;;;;;;;5.50;2.10;;;5.00;79.40;;;;;;5023589;28;20085;-85
2024/01/09 10:15:29;;;;;;;5.18;1.92;;;5.70;80.10;;;;;;5022986;28;20042;-86
2024/01/09 10:17:55;;;;;;;4.82;1.98;;;6.40;78.50;;;;;;5023947;28;20014;-86
2024/01/09 10:20:20;;;;;;;7.22;2.13;;;6.90;76.70;;;;;;5023181;28;20032;-86
2024/01/09 10:22:48;;;;;;;4.07;1.48;;;7.30;75.10;;;;;;5023133;28;20044;-86
2024/01/09 10:25:15;;;;;;;4.88;2.13;;;7.50;74.40;;;;;;5023309;28;20389;-86
2024/01/09 10:27:41;;;;;;;5.90;2.33;;;7.90;71.20;;;;;;5022487;28;20050;-86
2024/01/09 10:30:09;;;;;;;4.72;1.90;;;8.30;67.20;;;;;;5023843;28;20029;-86
2024/01/09 10:32:36;;;;;;;5.88;2.03;;;8.40;64.50;;;;;;5022538;28;20060;-86
2024/01/09 10:35:03;;;;;;;4.35;1.92;;;8.30;65.50;;;;;;5023599;28;20051;-87
2024/01/09 10:37:30;;;;;;;5.35;2.08;;;8.10;64.80;;;;;;5040495;28;20029;-86
2024/01/09 10:39:57;;;;;;;5.57;2.28;;;7.90;60.80;;;;;;5023341;28;20539;-86
2024/01/09 10:42:23;;;;;;;5.38;2.30;;;7.70;61.30;;;;;;5043851;28;20025;-86
2024/01/09 10:44:49;;;;;;;5.88;2.13;;;7.50;61.30;;;;;;5026773;28;20029;-86
2024/01/09 10:47:17;;;;;;;6.60;2.40;;;7.30;58.90;;;;;;5045038;28;20042;-87
2024/01/09 10:49:44;;;;;;;5.20;2.20;;;7.00;58.70;;;;;;5042823;28;20072;-86
2024/01/09 10:52:14;;;;;;;5.90;2.13;;;6.80;58.20;;;;;;5043303;28;20029;-86
2024/01/09 10:54:44;;;;;;;5.37;2.03;;;6.70;59.10;;;;;;5026096;28;20501;-87
2024/01/09 10:57:14;;;;;;;4.50;2.17;;;6.70;57.70;;;;;;5026100;28;20052;-86
2024/01/09 10:59:41;;;;;;;4.53;1.90;;;6.70;54.20;;;;;;5026516;28;20029;-87
2024/01/09 11:02:16;;;;;;;6.70;2.30;;;6.70;53.80;;;;;;5043981;28;20039;-87
2024/01/09 11:04:43;;;;;;;6.90;2.53;;;6.70;53.50;;;;;;5026850;28;20099;-87
2024/01/09 11:07:14;;;;;;;4.53;2.13;;;6.80;53.20;;;;;;5043297;28;20018;-87
2024/01/09 11:09:43;;;;;;;6.00;2.80;;;7.10;55.00;;;;;;5026588;28;20052;-86
2024/01/09 11:12:23;;;;;;;4.47;1.73;;;7.50;56.50;;;;;;5026057;28;20022;-86
2024/01/09 11:14:55;;;;;;;6.10;2.60;;;7.80;56.00;;;;;;5026099;28;20038;-86
2024/01/09 11:17:22;;;;;;;6.30;2.30;;;8.00;55.40;;;;;;5027728;28;20053;-87
2024/01/09 11:19:48;;;;;;;5.22;2.05;;;8.00;50.60;;;;;;5025251;28;20025;-86
2024/01/09 11:22:14;;;;;;;4.67;2.20;;;7.90;50.40;;;;;;5026312;28;20032;-86
2024/01/09 11:24:40;;;;;;;4.50;1.70;;;7.70;52.30;;;;;;5042127;28;20017;-86
2024/01/09 11:27:10;;;;;;;5.13;2.30;;;7.70;51.90;;;;;;5026089;28;20024;-86
2024/01/09 11:29:56;;;;;;;4.97;2.27;;;7.70;51.50;;;;;;5045646;28;20052;-86
2024/01/09 11:32:28;;;;;;;6.17;2.10;;;7.90;50.50;;;;;;5044763;28;20043;-86
2024/01/09 11:35:14;;;;;;;5.27;2.37;;;7.80;50.70;;;;;;5045948;28;20041;-85
2024/01/09 11:37:48;;;;;;;5.63;1.97;;;7.60;49.10;;;;;;5045530;28;20043;-86
2024/01/09 11:40:15;;;;;;;4.22;1.85;;;7.40;50.10;;;;;;5045659;28;20642;-86
2024/01/09 11:42:49;;;;;;;5.67;2.40;;;7.20;49.90;;;;;;5045087;28;20053;-86
2024/01/09 11:45:22;;;;;;;;;;;7.30;51.30;;;;;;5045298;28;20465;-87
2024/01/09 11:47:49;;;;;;;4.40;1.63;;;7.30;48.10;;;;;;5045615;28;19905;-87
2024/01/09 11:50:16;;;;;;;5.13;2.30;;;7.30;47.10;;;;;;5044723;28;20085;-87
2024/01/09 11:52:42;;;;;;;5.60;2.27;;;7.30;48.00;;;;;;5045042;28;20504;-86
2024/01/09 11:55:10;;;;;;;4.03;1.53;;;7.30;49.10;;;;;;5045101;28;20033;-87
2024/01/09 11:57:38;;;;;;;4.53;2.00;;;7.30;49.90;;;;;;5045228;28;20021;-87
2024/01/09 12:00:05;;;;;;;5.10;2.23;;;7.50;49.90;;;;;;5045634;28;20412;-87
2024/01/09 12:02:33;;;;;;;5.40;1.90;;;7.60;50.10;;;;;;5044445;28;20035;-88
2024/01/09 12:05:00;;;;;;;4.83;1.90;;;7.70;50.00;;;;;;5045501;28;20119;-87
2024/01/09 12:07:27;;;;;;;4.33;1.80;;;8.00;50.20;;;;;;5044809;28;20025;-87
2024/01/09 12:09:53;;;;;;;4.63;2.10;;;8.40;49.50;;;;;;5045176;28;20017;-88
2024/01/09 12:12:23;;;;;;;5.47;2.45;;;8.80;48.00;;;;;;5044960;28;20036;-88
2024/01/09 12:14:53;;;;;;;4.85;2.03;;;9.00;47.00;;;;;;5044925;28;20032;-87
2024/01/09 12:17:23;;;;;;;5.32;2.35;;;9.20;47.70;;;;;;5045890;28;20060;-87
2024/01/09 12:19:52;;;;;;;4.85;2.13;;;9.60;46.60;;;;;;5044636;28;20037;-87
2024/01/09 12:22:19;;;;;;;4.07;1.55;;;9.80;46.30;;;;;;5048077;28;20013;-87
2024/01/09 12:24:46;;;;;;;4.75;1.73;;;10.20;46.40;;;;;;5047857;28;20028;-88
2024/01/09 12:27:12;;;;;;;4.28;1.73;;;10.50;46.20;;;;;;5044836;28;20116;-88
2024/01/09 12:29:40;;;;;;;4.50;1.70;;;10.90;45.00;;;;;;5044792;28;20044;-88
2024/01/09 12:32:06;;;;;;;5.00;1.73;;;11.30;44.40;;;;;;5044191;28;20358;-88
2024/01/09 12:34:32;;;;;;;3.72;1.45;;;11.70;43.90;;;;;;5044886;28;20033;-87
2024/01/09 12:37:00;;;;;;;3.72;1.75;;;12.00;43.50;;;;;;5043786;28;20442;-88
2024/01/09 12:39:26;;;;;;;3.95;1.52;;;12.40;44.10;;;;;;5044868;28;20145;-88
2024/01/09 12:42:08;;;;;;;4.32;1.88;;;12.80;44.60;;;;;;5044252;28;20415;-89
2024/01/09 12:44:36;;;;;;;4.38;1.77;;;13.20;44.80;;;;;;5044328;28;20056;-88